sensor_id;sensor_type;location;lat;lon;timestamp;temperature;humidity
51175;DHT22;37240;50.104;20.010;2023-07-30T00:02:16;23.70;95.10
51175;DHT22;37240;50.104;20.010;2023-07-30T00:07:17;23.70;95.30
51175;DHT22;37240;50.104;20.010;2023-07-30T00:12:18;23.60;95.30
51175;DHT22;37240;50.104;20.010;2023-07-30T00:17:18;23.60;95.50
51175;DHT22;37240;50.104;20.010;2023-07-30T00:22:19;23.50;95.50
51175;DHT22;37240;50.104;20.010;2023-07-30T00:27:19;23.40;95.70
51175;DHT22;37240;50.104;20.010;2023-07-30T00:32:20;23.40;95.90
51175;DHT22;37240;50.104;20.010;2023-07-30T00:37:20;23.30;96.00
51175;DHT22;37240;50.104;20.010;2023-07-30T00:42:21;23.30;96.20
51175;DHT22;37240;50.104;20.010;2023-07-30T00:47:22;23.30;96.40
51175;DHT22;37240;50.104;20.010;2023-07-30T00:52:23;23.20;96.60
51175;DHT22;37240;50.104;20.010;2023-07-30T00:57:25;23.20;96.90
51175;DHT22;37240;50.104;20.010;2023-07-30T01:02:27;23.20;97.00
51175;DHT22;37240;50.104;20.010;2023-07-30T01:07:28;23.10;97.00
51175;DHT22;37240;50.104;20.010;2023-07-30T01:12:30;23.00;97.20
51175;DHT22;37240;50.104;20.010;2023-07-30T01:17:31;22.90;97.30
51175;DHT22;37240;50.104;20.010;2023-07-30T01:22:31;22.90;97.50
51175;DHT22;37240;50.104;20.010;2023-07-30T01:27:36;22.90;97.50
51175;DHT22;37240;50.104;20.010;2023-07-30T01:32:37;22.90;97.50
51175;DHT22;37240;50.104;20.010;2023-07-30T01:37:39;22.90;97.50
51175;DHT22;37240;50.104;20.010;2023-07-30T01:42:42;23.00;97.50
51175;DHT22;37240;50.104;20.010;2023-07-30T01:47:42;22.90;97.50
51175;DHT22;37240;50.104;20.010;2023-07-30T01:52:43;22.90;97.60
51175;DHT22;37240;50.104;20.010;2023-07-30T01:57:43;22.80;97.90
51175;DHT22;37240;50.104;20.010;2023-07-30T02:02:44;22.80;98.10
51175;DHT22;37240;50.104;20.010;2023-07-30T02:07:44;22.80;98.10
51175;DHT22;37240;50.104;20.010;2023-07-30T02:12:45;22.80;98.20
51175;DHT22;37240;50.104;20.010;2023-07-30T02:17:45;22.80;98.40
51175;DHT22;37240;50.104;20.010;2023-07-30T02:22:46;22.70;98.80
51175;DHT22;37240;50.104;20.010;2023-07-30T02:27:47;22.60;98.70
51175;DHT22;37240;50.104;20.010;2023-07-30T02:32:47;22.50;98.90
51175;DHT22;37240;50.104;20.010;2023-07-30T02:37:48;22.50;99.00
51175;DHT22;37240;50.104;20.010;2023-07-30T02:42:48;22.50;99.20
51175;DHT22;37240;50.104;20.010;2023-07-30T02:47:49;22.40;99.30
51175;DHT22;37240;50.104;20.010;2023-07-30T02:52:49;22.40;99.60
51175;DHT22;37240;50.104;20.010;2023-07-30T02:57:50;22.30;99.60
51175;DHT22;37240;50.104;20.010;2023-07-30T03:02:50;22.30;99.60
51175;DHT22;37240;50.104;20.010;2023-07-30T03:07:51;22.20;99.80
51175;DHT22;37240;50.104;20.010;2023-07-30T03:12:51;22.10;99.90
51175;DHT22;37240;50.104;20.010;2023-07-30T03:17:52;22.10;99.90
51175;DHT22;37240;50.104;20.010;2023-07-30T03:22:52;22.10;99.90
51175;DHT22;37240;50.104;20.010;2023-07-30T03:27:53;22.20;99.90
51175;DHT22;37240;50.104;20.010;2023-07-30T03:32:53;22.60;99.90
51175;DHT22;37240;50.104;20.010;2023-07-30T03:37:54;23.00;99.90
51175;DHT22;37240;50.104;20.010;2023-07-30T03:42:55;23.40;99.40
51175;DHT22;37240;50.104;20.010;2023-07-30T03:47:55;23.70;98.50
51175;DHT22;37240;50.104;20.010;2023-07-30T03:52:56;23.60;98.30
51175;DHT22;37240;50.104;20.010;2023-07-30T03:57:56;23.40;98.30
51175;DHT22;37240;50.104;20.010;2023-07-30T04:02:57;23.30;98.50
51175;DHT22;37240;50.104;20.010;2023-07-30T04:07:57;23.20;98.50
51175;DHT22;37240;50.104;20.010;2023-07-30T04:12:59;23.10;98.60
51175;DHT22;37240;50.104;20.010;2023-07-30T04:18:00;23.00;98.80
51175;DHT22;37240;50.104;20.010;2023-07-30T04:23:00;23.00;98.80
51175;DHT22;37240;50.104;20.010;2023-07-30T04:28:01;23.20;98.60
51175;DHT22;37240;50.104;20.010;2023-07-30T04:33:02;23.40;98.00
51175;DHT22;37240;50.104;20.010;2023-07-30T04:38:02;23.40;97.80
51175;DHT22;37240;50.104;20.010;2023-07-30T04:43:03;23.40;97.70
51175;DHT22;37240;50.104;20.010;2023-07-30T04:48:03;23.50;97.60
51175;DHT22;37240;50.104;20.010;2023-07-30T04:53:04;23.60;97.50
51175;DHT22;37240;50.104;20.010;2023-07-30T04:58:04;23.70;97.20
51175;DHT22;37240;50.104;20.010;2023-07-30T05:03:05;23.90;96.90
51175;DHT22;37240;50.104;20.010;2023-07-30T05:08:05;24.00;96.40
51175;DHT22;37240;50.104;20.010;2023-07-30T05:13:06;24.00;96.30
51175;DHT22;37240;50.104;20.010;2023-07-30T05:18:07;24.30;95.70
51175;DHT22;37240;50.104;20.010;2023-07-30T05:23:07;24.40;95.10
51175;DHT22;37240;50.104;20.010;2023-07-30T05:28:08;24.50;94.70
51175;DHT22;37240;50.104;20.010;2023-07-30T05:33:08;24.80;94.10
51175;DHT22;37240;50.104;20.010;2023-07-30T05:38:09;25.00;93.50
51175;DHT22;37240;50.104;20.010;2023-07-30T05:43:09;25.10;93.10
51175;DHT22;37240;50.104;20.010;2023-07-30T05:48:10;25.30;92.50
51175;DHT22;37240;50.104;20.010;2023-07-30T05:53:10;25.50;91.70
51175;DHT22;37240;50.104;20.010;2023-07-30T05:58:11;25.80;90.90
51175;DHT22;37240;50.104;20.010;2023-07-30T06:03:11;26.10;90.10
51175;DHT22;37240;50.104;20.010;2023-07-30T06:08:12;26.20;88.50
51175;DHT22;37240;50.104;20.010;2023-07-30T06:13:12;26.30;87.80
51175;DHT22;37240;50.104;20.010;2023-07-30T06:18:13;26.50;87.10
51175;DHT22;37240;50.104;20.010;2023-07-30T06:23:13;26.70;87.00
51175;DHT22;37240;50.104;20.010;2023-07-30T06:28:14;27.10;85.00
51175;DHT22;37240;50.104;20.010;2023-07-30T06:33:15;27.80;83.10
51175;DHT22;37240;50.104;20.010;2023-07-30T06:38:15;28.70;79.30
51175;DHT22;37240;50.104;20.010;2023-07-30T06:43:16;30.00;74.30
51175;DHT22;37240;50.104;20.010;2023-07-30T06:48:16;30.70;69.80
51175;DHT22;37240;50.104;20.010;2023-07-30T06:53:17;31.00;67.10
51175;DHT22;37240;50.104;20.010;2023-07-30T06:58:17;31.10;65.50
51175;DHT22;37240;50.104;20.010;2023-07-30T07:03:18;31.30;62.60
51175;DHT22;37240;50.104;20.010;2023-07-30T07:08:18;31.30;62.10
51175;DHT22;37240;50.104;20.010;2023-07-30T07:13:19;31.40;61.60
51175;DHT22;37240;50.104;20.010;2023-07-30T07:18:19;31.40;59.90
51175;DHT22;37240;50.104;20.010;2023-07-30T07:23:20;31.60;58.90
51175;DHT22;37240;50.104;20.010;2023-07-30T07:28:20;31.60;59.20
51175;DHT22;37240;50.104;20.010;2023-07-30T07:33:21;31.90;57.80
51175;DHT22;37240;50.104;20.010;2023-07-30T07:38:22;31.90;57.30
51175;DHT22;37240;50.104;20.010;2023-07-30T07:43:23;31.90;57.90
51175;DHT22;37240;50.104;20.010;2023-07-30T07:48:23;31.90;58.20
51175;DHT22;37240;50.104;20.010;2023-07-30T07:53:24;32.10;57.60
51175;DHT22;37240;50.104;20.010;2023-07-30T07:58:24;32.10;56.70
51175;DHT22;37240;50.104;20.010;2023-07-30T08:03:25;32.10;56.50
51175;DHT22;37240;50.104;20.010;2023-07-30T08:08:26;32.10;56.50
51175;DHT22;37240;50.104;20.010;2023-07-30T08:13:26;32.20;56.40
51175;DHT22;37240;50.104;20.010;2023-07-30T08:18:27;32.20;56.10
51175;DHT22;37240;50.104;20.010;2023-07-30T08:23:28;32.30;55.60
51175;DHT22;37240;50.104;20.010;2023-07-30T08:28:28;32.50;55.20
51175;DHT22;37240;50.104;20.010;2023-07-30T08:33:29;32.60;54.60
51175;DHT22;37240;50.104;20.010;2023-07-30T08:38:29;32.60;54.60
51175;DHT22;37240;50.104;20.010;2023-07-30T08:43:30;32.70;54.70
51175;DHT22;37240;50.104;20.010;2023-07-30T08:48:31;32.70;53.90
51175;DHT22;37240;50.104;20.010;2023-07-30T08:53:32;32.70;54.20
51175;DHT22;37240;50.104;20.010;2023-07-30T08:58:33;32.70;54.10
51175;DHT22;37240;50.104;20.010;2023-07-30T09:03:38;32.70;54.30
51175;DHT22;37240;50.104;20.010;2023-07-30T09:08:39;32.70;54.20
51175;DHT22;37240;50.104;20.010;2023-07-30T09:13:41;32.70;53.80
51175;DHT22;37240;50.104;20.010;2023-07-30T09:18:46;32.80;53.70
51175;DHT22;37240;50.104;20.010;2023-07-30T09:23:47;32.80;53.00
51175;DHT22;37240;50.104;20.010;2023-07-30T09:28:48;32.90;52.70
51175;DHT22;37240;50.104;20.010;2023-07-30T09:33:48;33.00;51.30
51175;DHT22;37240;50.104;20.010;2023-07-30T09:38:49;32.80;50.70
51175;DHT22;37240;50.104;20.010;2023-07-30T09:43:58;32.80;50.40
51175;DHT22;37240;50.104;20.010;2023-07-30T09:48:59;32.80;51.60
51175;DHT22;37240;50.104;20.010;2023-07-30T09:54:01;32.80;51.30
51175;DHT22;37240;50.104;20.010;2023-07-30T09:59:02;32.90;50.40
51175;DHT22;37240;50.104;20.010;2023-07-30T10:04:07;32.90;49.50
51175;DHT22;37240;50.104;20.010;2023-07-30T10:09:10;32.80;50.90
51175;DHT22;37240;50.104;20.010;2023-07-30T10:14:14;32.80;51.00
51175;DHT22;37240;50.104;20.010;2023-07-30T10:19:15;32.80;51.10
51175;DHT22;37240;50.104;20.010;2023-07-30T10:24:16;32.80;50.80
51175;DHT22;37240;50.104;20.010;2023-07-30T10:29:20;32.90;50.80
51175;DHT22;37240;50.104;20.010;2023-07-30T10:34:22;32.80;50.80
51175;DHT22;37240;50.104;20.010;2023-07-30T10:39:27;32.70;50.70
51175;DHT22;37240;50.104;20.010;2023-07-30T10:44:31;32.80;50.60
51175;DHT22;37240;50.104;20.010;2023-07-30T10:49:38;32.80;49.90
51175;DHT22;37240;50.104;20.010;2023-07-30T10:54:39;32.80;49.10
51175;DHT22;37240;50.104;20.010;2023-07-30T10:59:40;32.80;49.20
51175;DHT22;37240;50.104;20.010;2023-07-30T11:04:41;32.80;49.50
51175;DHT22;37240;50.104;20.010;2023-07-30T11:09:42;32.60;49.10
51175;DHT22;37240;50.104;20.010;2023-07-30T11:14:42;32.60;49.50
51175;DHT22;37240;50.104;20.010;2023-07-30T11:19:43;32.70;49.30
51175;DHT22;37240;50.104;20.010;2023-07-30T11:24:43;32.50;49.50
51175;DHT22;37240;50.104;20.010;2023-07-30T11:29:54;32.60;49.70
51175;DHT22;37240;50.104;20.010;2023-07-30T11:34:54;32.60;49.60
51175;DHT22;37240;50.104;20.010;2023-07-30T11:39:55;32.60;49.50
51175;DHT22;37240;50.104;20.010;2023-07-30T11:44:56;32.70;49.80
51175;DHT22;37240;50.104;20.010;2023-07-30T11:49:57;32.70;49.20
51175;DHT22;37240;50.104;20.010;2023-07-30T11:55:04;32.70;49.20
51175;DHT22;37240;50.104;20.010;2023-07-30T12:00:06;32.80;50.10
51175;DHT22;37240;50.104;20.010;2023-07-30T12:05:10;32.70;49.30
51175;DHT22;37240;50.104;20.010;2023-07-30T12:10:12;32.60;49.20
51175;DHT22;37240;50.104;20.010;2023-07-30T12:15:13;32.60;49.70
51175;DHT22;37240;50.104;20.010;2023-07-30T12:20:14;32.50;49.80
51175;DHT22;37240;50.104;20.010;2023-07-30T12:25:14;32.40;50.10
51175;DHT22;37240;50.104;20.010;2023-07-30T12:30:15;32.30;50.50
51175;DHT22;37240;50.104;20.010;2023-07-30T12:35:15;32.30;50.60
51175;DHT22;37240;50.104;20.010;2023-07-30T12:40:16;32.20;50.50
51175;DHT22;37240;50.104;20.010;2023-07-30T12:45:17;32.10;50.70
51175;DHT22;37240;50.104;20.010;2023-07-30T12:50:18;31.90;52.20
51175;DHT22;37240;50.104;20.010;2023-07-30T12:55:19;31.70;53.40
51175;DHT22;37240;50.104;20.010;2023-07-30T13:00:19;31.60;53.20
51175;DHT22;37240;50.104;20.010;2023-07-30T13:05:20;31.50;53.90
51175;DHT22;37240;50.104;20.010;2023-07-30T13:10:20;31.30;53.30
51175;DHT22;37240;50.104;20.010;2023-07-30T13:15:21;31.20;53.70
51175;DHT22;37240;50.104;20.010;2023-07-30T13:20:21;31.00;53.90
51175;DHT22;37240;50.104;20.010;2023-07-30T13:25:22;30.90;54.20
51175;DHT22;37240;50.104;20.010;2023-07-30T13:30:23;31.00;54.20
51175;DHT22;37240;50.104;20.010;2023-07-30T13:35:23;30.90;54.00
51175;DHT22;37240;50.104;20.010;2023-07-30T13:40:24;31.00;54.80
51175;DHT22;37240;50.104;20.010;2023-07-30T13:45:24;31.00;54.80
51175;DHT22;37240;50.104;20.010;2023-07-30T13:50:25;31.10;54.70
51175;DHT22;37240;50.104;20.010;2023-07-30T13:55:26;31.20;54.80
51175;DHT22;37240;50.104;20.010;2023-07-30T14:00:26;31.30;53.40
51175;DHT22;37240;50.104;20.010;2023-07-30T14:05:27;31.30;53.30
51175;DHT22;37240;50.104;20.010;2023-07-30T14:10:27;31.30;53.30
51175;DHT22;37240;50.104;20.010;2023-07-30T14:15:28;31.30;53.70
51175;DHT22;37240;50.104;20.010;2023-07-30T14:20:29;31.10;53.40
51175;DHT22;37240;50.104;20.010;2023-07-30T14:25:29;31.00;53.90
51175;DHT22;37240;50.104;20.010;2023-07-30T14:30:30;31.00;54.10
51175;DHT22;37240;50.104;20.010;2023-07-30T14:35:30;30.80;54.60
51175;DHT22;37240;50.104;20.010;2023-07-30T14:40:31;30.80;54.60
51175;DHT22;37240;50.104;20.010;2023-07-30T14:45:32;30.60;54.60
51175;DHT22;37240;50.104;20.010;2023-07-30T14:50:33;30.50;54.20
51175;DHT22;37240;50.104;20.010;2023-07-30T14:55:33;30.40;54.20
51175;DHT22;37240;50.104;20.010;2023-07-30T15:00:34;30.40;54.80
51175;DHT22;37240;50.104;20.010;2023-07-30T15:05:34;30.30;54.60
51175;DHT22;37240;50.104;20.010;2023-07-30T15:10:35;30.30;54.90
51175;DHT22;37240;50.104;20.010;2023-07-30T15:15:36;30.40;55.50
51175;DHT22;37240;50.104;20.010;2023-07-30T15:20:36;30.40;54.60
51175;DHT22;37240;50.104;20.010;2023-07-30T15:25:37;30.30;55.00
51175;DHT22;37240;50.104;20.010;2023-07-30T15:30:38;30.20;55.80
51175;DHT22;37240;50.104;20.010;2023-07-30T15:35:39;30.20;55.80
51175;DHT22;37240;50.104;20.010;2023-07-30T15:40:39;30.20;55.30
51175;DHT22;37240;50.104;20.010;2023-07-30T15:45:40;30.20;56.00
51175;DHT22;37240;50.104;20.010;2023-07-30T15:50:40;30.20;55.70
51175;DHT22;37240;50.104;20.010;2023-07-30T15:55:41;30.30;54.80
51175;DHT22;37240;50.104;20.010;2023-07-30T16:00:41;30.20;54.70
51175;DHT22;37240;50.104;20.010;2023-07-30T16:05:51;30.20;54.00
51175;DHT22;37240;50.104;20.010;2023-07-30T16:11:03;30.10;54.40
51175;DHT22;37240;50.104;20.010;2023-07-30T16:21:09;30.10;54.30
51175;DHT22;37240;50.104;20.010;2023-07-30T16:26:09;30.00;54.40
51175;DHT22;37240;50.104;20.010;2023-07-30T16:31:10;29.90;54.60
51175;DHT22;37240;50.104;20.010;2023-07-30T16:36:10;29.90;55.60
51175;DHT22;37240;50.104;20.010;2023-07-30T16:41:11;29.80;55.70
51175;DHT22;37240;50.104;20.010;2023-07-30T16:46:12;29.80;56.00
51175;DHT22;37240;50.104;20.010;2023-07-30T16:51:12;29.70;56.00
51175;DHT22;37240;50.104;20.010;2023-07-30T16:56:14;29.60;55.90
51175;DHT22;37240;50.104;20.010;2023-07-30T17:01:15;29.50;56.40
51175;DHT22;37240;50.104;20.010;2023-07-30T17:06:15;29.40;56.90
51175;DHT22;37240;50.104;20.010;2023-07-30T17:11:16;29.30;57.00
51175;DHT22;37240;50.104;20.010;2023-07-30T17:16:17;29.20;56.90
51175;DHT22;37240;50.104;20.010;2023-07-30T17:21:17;29.00;56.70
51175;DHT22;37240;50.104;20.010;2023-07-30T17:26:18;28.80;56.50
51175;DHT22;37240;50.104;20.010;2023-07-30T17:31:18;28.60;56.70
51175;DHT22;37240;50.104;20.010;2023-07-30T17:36:19;28.60;57.10
51175;DHT22;37240;50.104;20.010;2023-07-30T17:41:19;28.40;57.40
51175;DHT22;37240;50.104;20.010;2023-07-30T17:46:20;28.30;57.70
51175;DHT22;37240;50.104;20.010;2023-07-30T17:51:20;28.10;58.10
51175;DHT22;37240;50.104;20.010;2023-07-30T17:56:21;28.00;58.60
51175;DHT22;37240;50.104;20.010;2023-07-30T18:01:21;27.90;59.20
51175;DHT22;37240;50.104;20.010;2023-07-30T18:06:22;27.80;59.60
51175;DHT22;37240;50.104;20.010;2023-07-30T18:11:24;27.60;60.20
51175;DHT22;37240;50.104;20.010;2023-07-30T18:16:24;27.60;61.10
51175;DHT22;37240;50.104;20.010;2023-07-30T18:21:25;27.50;61.60
51175;DHT22;37240;50.104;20.010;2023-07-30T18:26:25;27.40;62.60
51175;DHT22;37240;50.104;20.010;2023-07-30T18:31:26;27.30;63.30
51175;DHT22;37240;50.104;20.010;2023-07-30T18:36:26;27.20;63.90
51175;DHT22;37240;50.104;20.010;2023-07-30T18:41:27;27.20;64.90
51175;DHT22;37240;50.104;20.010;2023-07-30T18:46:28;27.20;65.40
51175;DHT22;37240;50.104;20.010;2023-07-30T18:51:28;27.20;66.50
51175;DHT22;37240;50.104;20.010;2023-07-30T18:56:29;27.00;67.10
51175;DHT22;37240;50.104;20.010;2023-07-30T19:01:29;26.70;67.80
51175;DHT22;37240;50.104;20.010;2023-07-30T19:06:30;26.50;69.10
51175;DHT22;37240;50.104;20.010;2023-07-30T19:11:30;26.50;69.70
51175;DHT22;37240;50.104;20.010;2023-07-30T19:16:31;26.50;69.80
51175;DHT22;37240;50.104;20.010;2023-07-30T19:21:32;26.30;70.50
51175;DHT22;37240;50.104;20.010;2023-07-30T19:26:32;26.20;71.30
51175;DHT22;37240;50.104;20.010;2023-07-30T19:31:33;26.20;71.90
51175;DHT22;37240;50.104;20.010;2023-07-30T19:36:33;26.00;73.40
51175;DHT22;37240;50.104;20.010;2023-07-30T19:41:34;26.90;71.60
51175;DHT22;37240;50.104;20.010;2023-07-30T19:46:35;27.70;65.70
51175;DHT22;37240;50.104;20.010;2023-07-30T19:51:35;28.10;66.80
51175;DHT22;37240;50.104;20.010;2023-07-30T19:56:36;28.60;65.20
51175;DHT22;37240;50.104;20.010;2023-07-30T20:01:36;28.60;65.80
51175;DHT22;37240;50.104;20.010;2023-07-30T20:06:37;28.60;66.10
51175;DHT22;37240;50.104;20.010;2023-07-30T20:11:37;28.40;66.80
51175;DHT22;37240;50.104;20.010;2023-07-30T20:16:38;27.90;68.30
51175;DHT22;37240;50.104;20.010;2023-07-30T20:21:38;27.70;69.50
51175;DHT22;37240;50.104;20.010;2023-07-30T20:26:39;27.70;70.30
51175;DHT22;37240;50.104;20.010;2023-07-30T20:31:41;27.60;71.00
51175;DHT22;37240;50.104;20.010;2023-07-30T20:36:41;27.40;71.40
51175;DHT22;37240;50.104;20.010;2023-07-30T20:41:42;27.20;72.50
51175;DHT22;37240;50.104;20.010;2023-07-30T20:46:42;27.20;73.10
51175;DHT22;37240;50.104;20.010;2023-07-30T20:51:43;27.30;72.10
51175;DHT22;37240;50.104;20.010;2023-07-30T20:56:44;27.20;72.10
51175;DHT22;37240;50.104;20.010;2023-07-30T21:01:44;27.20;72.00
51175;DHT22;37240;50.104;20.010;2023-07-30T21:06:45;27.10;72.60
51175;DHT22;37240;50.104;20.010;2023-07-30T21:11:45;27.00;72.50
51175;DHT22;37240;50.104;20.010;2023-07-30T21:16:46;26.60;74.10
51175;DHT22;37240;50.104;20.010;2023-07-30T21:21:47;26.20;75.60
51175;DHT22;37240;50.104;20.010;2023-07-30T21:26:47;25.80;77.70
51175;DHT22;37240;50.104;20.010;2023-07-30T21:31:48;25.70;78.70
51175;DHT22;37240;50.104;20.010;2023-07-30T21:36:48;25.50;79.40
51175;DHT22;37240;50.104;20.010;2023-07-30T21:41:49;25.40;80.20
51175;DHT22;37240;50.104;20.010;2023-07-30T21:46:49;25.30;81.10
51175;DHT22;37240;50.104;20.010;2023-07-30T21:51:50;25.20;82.20
51175;DHT22;37240;50.104;20.010;2023-07-30T21:56:50;25.20;83.00
51175;DHT22;37240;50.104;20.010;2023-07-30T22:01:51;25.00;84.30
51175;DHT22;37240;50.104;20.010;2023-07-30T22:06:51;24.90;85.10
51175;DHT22;37240;50.104;20.010;2023-07-30T22:11:52;24.70;85.80
51175;DHT22;37240;50.104;20.010;2023-07-30T22:16:53;24.60;87.00
51175;DHT22;37240;50.104;20.010;2023-07-30T22:21:53;24.60;87.30
51175;DHT22;37240;50.104;20.010;2023-07-30T22:26:54;24.50;87.70
51175;DHT22;37240;50.104;20.010;2023-07-30T22:31:54;24.30;88.20
51175;DHT22;37240;50.104;20.010;2023-07-30T22:36:55;24.30;88.40
51175;DHT22;37240;50.104;20.010;2023-07-30T22:41:55;24.20;89.00
51175;DHT22;37240;50.104;20.010;2023-07-30T22:46:56;24.10;88.90
51175;DHT22;37240;50.104;20.010;2023-07-30T22:51:56;24.20;88.80
51175;DHT22;37240;50.104;20.010;2023-07-30T22:56:57;24.00;88.80
51175;DHT22;37240;50.104;20.010;2023-07-30T23:01:58;23.80;89.60
51175;DHT22;37240;50.104;20.010;2023-07-30T23:06:59;23.80;90.00
51175;DHT22;37240;50.104;20.010;2023-07-30T23:11:59;23.80;90.00
51175;DHT22;37240;50.104;20.010;2023-07-30T23:17:00;23.70;90.20
51175;DHT22;37240;50.104;20.010;2023-07-30T23:22:01;23.60;90.70
51175;DHT22;37240;50.104;20.010;2023-07-30T23:27:01;23.50;91.10
51175;DHT22;37240;50.104;20.010;2023-07-30T23:32:02;23.50;91.20
51175;DHT22;37240;50.104;20.010;2023-07-30T23:37:02;23.40;91.50
51175;DHT22;37240;50.104;20.010;2023-07-30T23:42:03;23.30;91.80
51175;DHT22;37240;50.104;20.010;2023-07-30T23:47:04;23.40;91.70
51175;DHT22;37240;50.104;20.010;2023-07-30T23:52:05;23.30;91.90
51175;DHT22;37240;50.104;20.010;2023-07-30T23:57:06;23.20;92.10
